Time;durP1;ratioP1;P1;durP2;ratioP2;P2;SDS_P1;SDS_P2;PMS_P1;PMS_P2;Temp;Humidity;BMP_temperature;BMP_pressure;BME280_temperature;BME280_humidity;BME280_pressure;Samples;Min_cycle;Max_cycle;Signal;HPM_P1;HPM_P2
2023/09/05 00:00:03;;;;;;;12.93;3.38;;;;;;;;;;4942593;28;20086;-67
2023/09/05 00:02:29;;;;;;;13.48;3.40;;;;;;;;;;4944418;28;20694;-67
2023/09/05 00:04:56;;;;;;;13.50;3.50;;;;;;;;;;4946868;28;20093;-68
2023/09/05 00:07:22;;;;;;;12.32;3.30;;;;;;;;;;4944921;28;21498;-68
2023/09/05 00:09:49;;;;;;;10.90;3.03;;;;;;;;;;4947773;28;20031;-68
2023/09/05 00:12:15;;;;;;;13.38;3.13;;;;;;;;;;4941619;28;20095;-68
2023/09/05 00:14:42;;;;;;;10.60;2.80;;;;;;;;;;4929707;28;20058;-67
2023/09/05 00:17:08;;;;;;;10.43;2.83;;;;;;;;;;4932391;28;20102;-67
2023/09/05 00:19:34;;;;;;;13.05;3.20;;;;;;;;;;4933078;28;20035;-67
2023/09/05 00:22:00;;;;;;;12.38;2.90;;;;;;;;;;4934089;28;20039;-67
2023/09/05 00:24:27;;;;;;;12.52;3.08;;;;;;;;;;4932643;28;20141;-68
2023/09/05 00:26:54;;;;;;;13.93;3.50;;;;;;;;;;4931944;28;20435;-68
2023/09/05 00:29:20;;;;;;;11.70;3.30;;;;;;;;;;4932082;28;20041;-67
2023/09/05 00:31:47;;;;;;;11.32;2.90;;;;;;;;;;4936624;28;20572;-67
2023/09/05 00:34:16;;;;;;;11.05;2.35;;;;;;;;;;4931253;28;20072;-67
2023/09/05 00:36:42;;;;;;;12.18;2.85;;;;;;;;;;4932762;28;20436;-67
2023/09/05 00:39:09;;;;;;;13.10;2.72;;;;;;;;;;4930888;28;20030;-68
2023/09/05 00:41:37;;;;;;;11.98;2.72;;;;;;;;;;4934306;28;20181;-68
2023/09/05 00:44:04;;;;;;;9.13;2.17;;;;;;;;;;4931579;28;20666;-68
2023/09/05 00:46:31;;;;;;;10.82;2.30;;;;;;;;;;4932501;28;20437;-68
2023/09/05 00:48:57;;;;;;;12.07;2.85;;;;;;;;;;4932754;28;20031;-68
2023/09/05 00:51:25;;;;;;;8.88;2.83;;;;;;;;;;4946607;28;20554;-68
2023/09/05 00:53:51;;;;;;;13.93;2.80;;;;;;;;;;4947954;28;20023;-68
2023/09/05 00:56:17;;;;;;;13.82;3.55;;;;;;;;;;4945165;28;20041;-68
2023/09/05 00:58:44;;;;;;;11.90;2.88;;;;;;;;;;4950024;28;20027;-68
2023/09/05 01:01:10;;;;;;;9.65;2.60;;;;;;;;;;4947666;28;20260;-68
2023/09/05 01:03:36;;;;;;;10.48;2.88;;;;;;;;;;4950203;28;20069;-68
2023/09/05 01:06:05;;;;;;;11.07;2.70;;;;;;;;;;4947056;28;20428;-68
2023/09/05 01:08:38;;;;;;;11.52;2.85;;;;;;;;;;4944435;28;20350;-68
2023/09/05 01:11:08;;;;;;;11.13;2.95;;;;;;;;;;4944681;28;20039;-68
2023/09/05 01:13:36;;;;;;;11.07;2.75;;;;;;;;;;4950563;28;20062;-68
2023/09/05 01:16:02;;;;;;;12.13;2.90;;;;;;;;;;4944110;28;20035;-67
2023/09/05 01:18:33;;;;;;;12.07;2.78;;;;;;;;;;4949202;28;20034;-68
2023/09/05 01:21:18;;;;;;;10.27;2.97;;;;;;;;;;4948947;28;20641;-67
2023/09/05 01:24:11;;;;;;;11.18;2.80;;;;;;;;;;4943696;28;20093;-68
2023/09/05 01:26:37;;;;;;;10.57;2.88;;;;;;;;;;4945664;28;20151;-68
2023/09/05 01:29:05;;;;;;;13.25;2.97;;;;;;;;;;4940391;28;20117;-67
2023/09/05 01:31:31;;;;;;;10.93;3.10;;;;;;;;;;4946119;28;20034;-68
2023/09/05 01:33:58;;;;;;;11.70;2.92;;;;;;;;;;4947088;28;20509;-69
2023/09/05 01:36:24;;;;;;;10.85;2.70;;;;;;;;;;4942125;28;20909;-68
2023/09/05 01:38:50;;;;;;;11.00;3.05;;;;;;;;;;4946819;28;20464;-68
2023/09/05 01:41:16;;;;;;;8.15;2.30;;;;;;;;;;4941508;28;20055;-68
2023/09/05 01:43:42;;;;;;;9.38;2.67;;;;;;;;;;4951163;28;20110;-68
2023/09/05 01:46:10;;;;;;;11.25;3.20;;;;;;;;;;4945037;28;20060;-69
2023/09/05 01:48:36;;;;;;;11.32;2.83;;;;;;;;;;4942089;28;20287;-68
2023/09/05 01:51:02;;;;;;;11.07;3.30;;;;;;;;;;4947737;28;20047;-68
2023/09/05 01:53:29;;;;;;;11.13;2.80;;;;;;;;;;4945335;28;20679;-68
2023/09/05 01:55:57;;;;;;;10.52;2.70;;;;;;;;;;4946240;28;20031;-68
2023/09/05 01:58:24;;;;;;;14.98;3.20;;;;;;;;;;4944087;28;20126;-68
2023/09/05 02:00:50;;;;;;;10.40;2.88;;;;;;;;;;4948559;28;20101;-68
2023/09/05 02:03:16;;;;;;;12.95;3.33;;;;;;;;;;4946678;28;20019;-68
2023/09/05 02:05:43;;;;;;;10.63;3.03;;;;;;;;;;4940681;28;20039;-68
2023/09/05 02:08:09;;;;;;;10.50;3.20;;;;;;;;;;4944302;28;20026;-68
2023/09/05 02:10:35;;;;;;;14.23;3.22;;;;;;;;;;4943628;28;20096;-68
2023/09/05 02:13:01;;;;;;;11.60;2.80;;;;;;;;;;4946091;28;20140;-68
2023/09/05 02:15:28;;;;;;;12.27;3.05;;;;;;;;;;4942393;28;20930;-68
2023/09/05 02:17:55;;;;;;;13.23;3.40;;;;;;;;;;4947339;28;20537;-68
2023/09/05 02:20:23;;;;;;;10.80;2.80;;;;;;;;;;4941680;28;20031;-68
2023/09/05 02:22:49;;;;;;;10.23;2.90;;;;;;;;;;4943415;28;20316;-68
2023/09/05 02:25:15;;;;;;;11.45;3.13;;;;;;;;;;4944375;28;20423;-68
2023/09/05 02:27:41;;;;;;;9.80;2.92;;;;;;;;;;4947507;28;20027;-68
2023/09/05 02:30:07;;;;;;;10.48;3.13;;;;;;;;;;4953547;28;20034;-68
2023/09/05 02:32:34;;;;;;;11.18;3.10;;;;;;;;;;4946818;28;20089;-68
2023/09/05 02:35:01;;;;;;;10.88;3.13;;;;;;;;;;4949529;28;20030;-68
2023/09/05 02:37:27;;;;;;;14.68;3.38;;;;;;;;;;4942813;28;20035;-68
2023/09/05 02:39:54;;;;;;;11.40;3.53;;;;;;;;;;4942512;28;20027;-68
2023/09/05 02:42:20;;;;;;;14.15;3.33;;;;;;;;;;4942381;28;20170;-68
2023/09/05 02:44:46;;;;;;;14.80;3.35;;;;;;;;;;4940616;28;20033;-68
2023/09/05 02:47:12;;;;;;;16.42;3.83;;;;;;;;;;4941964;28;20046;-68
2023/09/05 02:49:38;;;;;;;12.45;3.30;;;;;;;;;;4941137;28;20054;-69
2023/09/05 02:52:05;;;;;;;11.43;3.38;;;;;;;;;;4939118;28;20034;-67
2023/09/05 02:54:31;;;;;;;12.98;3.20;;;;;;;;;;4946759;28;20034;-67
2023/09/05 02:56:58;;;;;;;13.93;3.50;;;;;;;;;;4943711;28;20731;-67
2023/09/05 02:59:24;;;;;;;13.43;3.42;;;;;;;;;;4940845;28;20418;-67
2023/09/05 03:01:50;;;;;;;12.88;3.20;;;;;;;;;;4945600;28;20204;-66
2023/09/05 03:04:17;;;;;;;14.95;3.78;;;;;;;;;;4943078;28;20027;-66
2023/09/05 03:06:43;;;;;;;13.93;3.50;;;;;;;;;;4942510;28;20039;-68
2023/09/05 03:09:09;;;;;;;13.02;3.42;;;;;;;;;;4942659;28;20097;-68
2023/09/05 03:11:35;;;;;;;12.05;3.53;;;;;;;;;;4945690;28;20035;-67
2023/09/05 03:14:02;;;;;;;14.65;3.55;;;;;;;;;;4946528;28;20030;-67
2023/09/05 03:16:28;;;;;;;11.30;3.30;;;;;;;;;;4951092;28;20042;-67
2023/09/05 03:18:59;;;;;;;14.63;3.53;;;;;;;;;;4944245;28;20477;-67
2023/09/05 03:21:28;;;;;;;14.13;3.95;;;;;;;;;;4944087;28;20320;-68
2023/09/05 03:23:56;;;;;;;15.18;3.60;;;;;;;;;;4951170;28;20323;-67
2023/09/05 03:26:22;;;;;;;12.73;3.20;;;;;;;;;;4943696;28;20039;-67
2023/09/05 03:28:48;;;;;;;12.18;3.67;;;;;;;;;;4948663;28;20075;-68
2023/09/05 03:31:14;;;;;;;13.02;3.50;;;;;;;;;;4947923;28;20154;-67
2023/09/05 03:33:40;;;;;;;13.00;3.60;;;;;;;;;;4952032;28;20631;-67
2023/09/05 03:36:08;;;;;;;13.70;3.60;;;;;;;;;;4944138;28;20038;-67
2023/09/05 03:38:35;;;;;;;13.43;3.47;;;;;;;;;;4940945;28;20023;-67
2023/09/05 03:41:01;;;;;;;12.18;3.53;;;;;;;;;;4943081;28;20571;-68
2023/09/05 03:43:27;;;;;;;12.13;3.20;;;;;;;;;;4941826;28;20101;-66
2023/09/05 03:45:53;;;;;;;13.02;3.45;;;;;;;;;;4947273;28;20035;-67
2023/09/05 03:48:20;;;;;;;11.20;3.38;;;;;;;;;;4941812;28;20477;-66
2023/09/05 03:50:46;;;;;;;12.07;3.13;;;;;;;;;;4950988;28;20608;-67
2023/09/05 03:53:12;;;;;;;12.85;3.40;;;;;;;;;;4946159;28;20034;-69
2023/09/05 03:55:38;;;;;;;11.68;3.10;;;;;;;;;;4949438;28;20054;-69
2023/09/05 03:58:05;;;;;;;12.00;3.03;;;;;;;;;;4946298;28;20034;-67
2023/09/05 04:00:34;;;;;;;11.80;3.00;;;;;;;;;;4952494;28;20023;-67
2023/09/05 04:03:02;;;;;;;11.77;3.63;;;;;;;;;;4953811;28;20038;-69
2023/09/05 04:05:29;;;;;;;12.02;3.63;;;;;;;;;;4948087;28;20042;-68
2023/09/05 04:07:55;;;;;;;10.23;3.22;;;;;;;;;;4950157;28;20097;-68
2023/09/05 04:10:22;;;;;;;11.35;3.17;;;;;;;;;;4949657;28;20804;-68
2023/09/05 04:12:50;;;;;;;11.45;3.42;;;;;;;;;;4948476;28;20095;-68
2023/09/05 04:15:20;;;;;;;11.60;3.13;;;;;;;;;;4945714;28;20014;-68
2023/09/05 04:17:47;;;;;;;12.23;3.42;;;;;;;;;;4946866;28;20027;-68
2023/09/05 04:20:13;;;;;;;12.95;3.80;;;;;;;;;;4943530;28;20071;-68
2023/09/05 04:22:39;;;;;;;10.93;3.30;;;;;;;;;;4945672;28;20019;-68
2023/09/05 04:25:09;;;;;;;10.30;3.00;;;;;;;;;;4944057;28;20043;-69
2023/09/05 04:27:36;;;;;;;10.05;3.38;;;;;;;;;;4943439;28;20041;-68
2023/09/05 04:30:03;;;;;;;11.95;3.05;;;;;;;;;;4943459;28;20015;-67
2023/09/05 04:32:32;;;;;;;10.98;3.10;;;;;;;;;;4944526;28;20034;-68
2023/09/05 04:34:59;;;;;;;13.85;3.63;;;;;;;;;;4949189;28;20039;-67
2023/09/05 04:37:26;;;;;;;14.13;3.72;;;;;;;;;;4945287;28;20642;-68
2023/09/05 04:39:52;;;;;;;10.65;2.88;;;;;;;;;;4946648;28;20982;-68
2023/09/05 04:42:19;;;;;;;9.50;3.10;;;;;;;;;;4941524;28;20145;-68
2023/09/05 04:44:45;;;;;;;10.07;3.00;;;;;;;;;;4946006;28;20104;-68
2023/09/05 04:47:22;;;;;;;10.30;2.95;;;;;;;;;;4945405;28;20538;-68
2023/09/05 04:49:52;;;;;;;11.05;3.35;;;;;;;;;;4947023;28;20126;-68
2023/09/05 04:52:19;;;;;;;11.73;3.20;;;;;;;;;;4941945;28;20039;-68
2023/09/05 04:54:45;;;;;;;10.65;3.15;;;;;;;;;;4944993;28;20142;-69
2023/09/05 04:57:16;;;;;;;10.57;3.08;;;;;;;;;;4947823;28;20043;-68
2023/09/05 04:59:44;;;;;;;11.45;3.35;;;;;;;;;;4943933;28;20854;-68
2023/09/05 05:02:11;;;;;;;11.15;3.15;;;;;;;;;;4947771;28;20034;-68
2023/09/05 05:04:37;;;;;;;12.80;3.10;;;;;;;;;;4947075;28;20034;-68
2023/09/05 05:07:03;;;;;;;9.95;3.22;;;;;;;;;;4942467;28;20128;-68
2023/09/05 05:09:30;;;;;;;10.75;2.97;;;;;;;;;;4944740;28;20629;-67
2023/09/05 05:11:56;;;;;;;8.88;3.10;;;;;;;;;;4939864;28;20386;-68
2023/09/05 05:14:22;;;;;;;13.82;4.10;;;;;;;;;;4943142;28;20492;-68
2023/09/05 05:16:49;;;;;;;13.85;3.35;;;;;;;;;;4943538;28;20038;-68
2023/09/05 05:19:15;;;;;;;11.93;3.20;;;;;;;;;;4947343;28;20038;-68
2023/09/05 05:21:41;;;;;;;10.35;3.47;;;;;;;;;;4947381;28;20433;-68
2023/09/05 05:24:08;;;;;;;11.55;3.47;;;;;;;;;;4943076;28;20440;-67
2023/09/05 05:26:34;;;;;;;11.48;3.20;;;;;;;;;;4938766;28;20772;-67
2023/09/05 05:29:00;;;;;;;12.25;3.60;;;;;;;;;;4947874;28;20026;-67
2023/09/05 05:31:26;;;;;;;13.50;3.30;;;;;;;;;;4942032;28;20031;-67
2023/09/05 05:33:53;;;;;;;11.40;3.38;;;;;;;;;;4948434;28;20034;-67
2023/09/05 05:36:19;;;;;;;10.25;3.10;;;;;;;;;;4943545;28;20135;-67
2023/09/05 05:38:45;;;;;;;10.70;3.17;;;;;;;;;;4944573;28;20105;-67
2023/09/05 05:41:11;;;;;;;12.23;3.28;;;;;;;;;;4936497;28;21026;-67
2023/09/05 05:43:37;;;;;;;11.65;3.03;;;;;;;;;;4940902;28;20038;-67
2023/09/05 05:46:04;;;;;;;10.50;2.95;;;;;;;;;;4943047;28;20137;-67
2023/09/05 05:48:30;;;;;;;10.75;3.20;;;;;;;;;;4944196;28;20121;-67
2023/09/05 05:50:56;;;;;;;11.57;3.28;;;;;;;;;;4942904;28;20077;-67
2023/09/05 05:53:24;;;;;;;10.38;3.17;;;;;;;;;;4938991;28;22077;-67
2023/09/05 05:55:50;;;;;;;10.27;3.30;;;;;;;;;;4944463;28;20397;-66
2023/09/05 05:58:16;;;;;;;10.55;2.85;;;;;;;;;;4936088;28;20031;-66
2023/09/05 06:00:50;;;;;;;11.30;3.15;;;;;;;;;;4950666;28;20026;-66
2023/09/05 06:03:17;;;;;;;10.88;3.30;;;;;;;;;;4944881;28;20133;-67
2023/09/05 06:05:44;;;;;;;9.85;3.08;;;;;;;;;;4947121;28;20095;-66
2023/09/05 06:08:10;;;;;;;10.60;2.85;;;;;;;;;;4943138;28;20034;-66
2023/09/05 06:10:36;;;;;;;8.52;2.90;;;;;;;;;;4946506;28;20464;-66
2023/09/05 06:13:04;;;;;;;11.30;3.00;;;;;;;;;;4942280;28;20031;-66
2023/09/05 06:15:30;;;;;;;10.57;3.60;;;;;;;;;;4949874;28;20093;-67
2023/09/05 06:17:57;;;;;;;10.88;3.33;;;;;;;;;;4940548;28;20047;-66
2023/09/05 06:20:23;;;;;;;12.32;2.90;;;;;;;;;;4933356;28;20153;-69
2023/09/05 06:22:49;;;;;;;9.40;2.95;;;;;;;;;;4934112;28;20110;-66
2023/09/05 06:25:16;;;;;;;11.77;3.40;;;;;;;;;;4928259;28;20027;-66
2023/09/05 06:27:43;;;;;;;12.60;3.33;;;;;;;;;;4937609;28;20042;-67
2023/09/05 06:30:09;;;;;;;14.10;3.72;;;;;;;;;;4931578;28;20271;-68
2023/09/05 06:32:35;;;;;;;13.10;3.70;;;;;;;;;;4934474;28;20022;-67
2023/09/05 06:35:02;;;;;;;12.60;3.60;;;;;;;;;;4932983;28;20375;-68
2023/09/05 06:37:31;;;;;;;12.68;3.30;;;;;;;;;;4932941;28;20657;-68
2023/09/05 06:39:57;;;;;;;12.52;3.38;;;;;;;;;;4930993;28;20371;-68
2023/09/05 06:42:23;;;;;;;10.65;3.20;;;;;;;;;;4930277;28;20070;-68
2023/09/05 06:44:49;;;;;;;17.45;4.05;;;;;;;;;;4931442;28;20450;-68
2023/09/05 06:47:16;;;;;;;13.43;3.75;;;;;;;;;;4931325;28;20105;-69
2023/09/05 06:49:42;;;;;;;13.82;3.20;;;;;;;;;;4931040;28;20035;-68
2023/09/05 06:52:08;;;;;;;13.25;3.65;;;;;;;;;;4929201;28;21252;-67
2023/09/05 06:54:35;;;;;;;11.93;3.35;;;;;;;;;;4938037;28;20034;-68
2023/09/05 06:57:01;;;;;;;13.77;3.30;;;;;;;;;;4945228;28;20041;-68
2023/09/05 06:59:27;;;;;;;12.95;3.15;;;;;;;;;;4939972;28;20027;-69
2023/09/05 07:01:54;;;;;;;12.68;3.42;;;;;;;;;;4947485;28;20042;-68
2023/09/05 07:04:20;;;;;;;13.40;3.85;;;;;;;;;;4938512;28;20047;-68
2023/09/05 07:06:48;;;;;;;12.30;2.90;;;;;;;;;;4944156;28;20031;-68
2023/09/05 07:09:15;;;;;;;13.68;2.97;;;;;;;;;;4946206;28;20039;-68
2023/09/05 07:11:41;;;;;;;10.30;2.83;;;;;;;;;;4944137;28;20078;-68
2023/09/05 07:14:09;;;;;;;8.60;2.72;;;;;;;;;;4941362;28;20337;-69
2023/09/05 07:16:35;;;;;;;12.18;3.53;;;;;;;;;;4946319;28;20491;-68
2023/09/05 07:19:01;;;;;;;9.48;2.90;;;;;;;;;;4945750;28;20035;-67
2023/09/05 07:21:28;;;;;;;14.77;3.50;;;;;;;;;;4947557;28;20114;-68
2023/09/05 07:23:54;;;;;;;10.27;3.00;;;;;;;;;;4946284;28;20105;-68
2023/09/05 07:26:20;;;;;;;10.15;2.95;;;;;;;;;;4943900;28;20118;-68
2023/09/05 07:28:46;;;;;;;15.27;3.80;;;;;;;;;;4947255;28;20038;-68
2023/09/05 07:31:14;;;;;;;12.73;3.40;;;;;;;;;;4950106;28;20081;-68
2023/09/05 07:33:41;;;;;;;11.00;3.28;;;;;;;;;;4946814;28;20365;-68
2023/09/05 07:36:07;;;;;;;11.65;3.40;;;;;;;;;;4944319;28;20082;-68
2023/09/05 07:38:33;;;;;;;12.52;3.78;;;;;;;;;;4947259;28;20035;-67
2023/09/05 07:41:03;;;;;;;12.60;3.00;;;;;;;;;;4946410;28;20390;-68
2023/09/05 07:43:30;;;;;;;12.20;3.08;;;;;;;;;;4948057;28;20805;-68
2023/09/05 07:45:56;;;;;;;12.02;3.10;;;;;;;;;;4954164;28;20117;-67
2023/09/05 07:48:23;;;;;;;12.98;3.22;;;;;;;;;;4944542;28;20054;-68
2023/09/05 07:50:49;;;;;;;12.50;3.25;;;;;;;;;;4950287;28;20090;-68
2023/09/05 07:53:15;;;;;;;13.10;3.33;;;;;;;;;;4945211;28;20147;-68
2023/09/05 07:55:41;;;;;;;11.18;3.22;;;;;;;;;;4954774;28;20564;-68
2023/09/05 07:58:10;;;;;;;9.68;2.95;;;;;;;;;;4950622;28;20118;-68
2023/09/05 08:00:36;;;;;;;10.65;3.30;;;;;;;;;;4952503;28;20789;-68
2023/09/05 08:03:03;;;;;;;13.00;3.40;;;;;;;;;;4950577;28;20477;-68
2023/09/05 08:05:31;;;;;;;10.45;3.13;;;;;;;;;;4948328;28;20524;-68
2023/09/05 08:07:57;;;;;;;9.32;2.63;;;;;;;;;;4949398;28;20049;-68
2023/09/05 08:10:23;;;;;;;12.48;3.33;;;;;;;;;;4946334;28;20114;-68
2023/09/05 08:12:49;;;;;;;10.25;3.33;;;;;;;;;;4947897;28;20030;-69
2023/09/05 08:15:17;;;;;;;11.27;3.00;;;;;;;;;;4946487;28;20035;-68
2023/09/05 08:17:43;;;;;;;9.27;2.80;;;;;;;;;;4950375;28;20031;-68
2023/09/05 08:20:12;;;;;;;10.05;2.50;;;;;;;;;;4950627;28;20049;-68
2023/09/05 08:22:39;;;;;;;9.90;2.67;;;;;;;;;;4949182;28;20174;-68
2023/09/05 08:25:09;;;;;;;12.52;2.95;;;;;;;;;;4947589;28;20031;-68
2023/09/05 08:27:35;;;;;;;10.30;2.80;;;;;;;;;;4951261;28;20041;-68
2023/09/05 08:30:02;;;;;;;10.45;3.58;;;;;;;;;;4947954;28;20687;-68
2023/09/05 08:32:29;;;;;;;8.02;2.72;;;;;;;;;;4946109;28;20097;-68
2023/09/05 08:34:55;;;;;;;8.73;2.70;;;;;;;;;;4948842;28;20069;-68
2023/09/05 08:37:21;;;;;;;9.85;2.67;;;;;;;;;;4944279;28;20031;-68
2023/09/05 08:39:47;;;;;;;9.98;2.65;;;;;;;;;;4947533;28;20089;-69
2023/09/05 08:42:14;;;;;;;10.35;2.78;;;;;;;;;;4944547;28;20484;-68
2023/09/05 08:44:43;;;;;;;9.23;2.97;;;;;;;;;;4951101;28;20027;-68
2023/09/05 08:47:09;;;;;;;10.10;3.00;;;;;;;;;;4945205;28;20039;-68
2023/09/05 08:49:37;;;;;;;10.27;3.17;;;;;;;;;;4945334;28;20204;-68
2023/09/05 08:52:04;;;;;;;10.57;2.83;;;;;;;;;;4943879;28;20074;-68
2023/09/05 08:54:31;;;;;;;9.65;2.85;;;;;;;;;;4948781;28;20156;-68
2023/09/05 08:56:57;;;;;;;12.20;2.90;;;;;;;;;;4943882;28;20035;-68
2023/09/05 08:59:25;;;;;;;8.70;2.67;;;;;;;;;;4944655;28;20609;-68
2023/09/05 09:01:54;;;;;;;11.20;2.50;;;;;;;;;;4950661;28;20030;-70
2023/09/05 09:04:21;;;;;;;9.68;2.70;;;;;;;;;;4946240;28;20035;-68
2023/09/05 09:06:54;;;;;;;8.02;2.78;;;;;;;;;;4948351;28;20399;-68
2023/09/05 09:09:36;;;;;;;10.45;3.25;;;;;;;;;;4944882;28;20175;-68
2023/09/05 09:12:02;;;;;;;10.30;3.17;;;;;;;;;;4947618;28;20038;-68
2023/09/05 09:14:28;;;;;;;11.18;3.20;;;;;;;;;;4945647;28;20023;-68
2023/09/05 09:16:55;;;;;;;11.40;3.30;;;;;;;;;;4949150;28;20033;-68
2023/09/05 09:19:21;;;;;;;11.65;3.03;;;;;;;;;;4946569;28;20090;-68
2023/09/05 09:21:47;;;;;;;10.75;3.28;;;;;;;;;;4945742;28;20026;-68
2023/09/05 09:24:16;;;;;;;10.52;3.00;;;;;;;;;;4944563;28;20046;-68
2023/09/05 09:26:42;;;;;;;10.38;3.25;;;;;;;;;;4947444;28;20026;-67
2023/09/05 09:29:09;;;;;;;18.75;3.30;;;;;;;;;;4944956;28;20132;-67
2023/09/05 09:31:37;;;;;;;10.60;2.88;;;;;;;;;;4951862;28;20165;-67
2023/09/05 09:34:04;;;;;;;10.77;2.97;;;;;;;;;;4948577;28;20071;-68
2023/09/05 09:36:34;;;;;;;8.93;2.53;;;;;;;;;;4947472;28;20030;-67
2023/09/05 09:39:07;;;;;;;13.35;3.08;;;;;;;;;;4945585;28;20038;-67
2023/09/05 09:41:33;;;;;;;8.35;2.63;;;;;;;;;;4944627;28;20054;-67
2023/09/05 09:44:00;;;;;;;12.15;2.70;;;;;;;;;;4947342;28;20047;-66
2023/09/05 09:46:26;;;;;;;11.43;2.53;;;;;;;;;;4943541;28;20015;-68
2023/09/05 09:48:53;;;;;;;9.02;2.45;;;;;;;;;;4944338;28;20152;-67
2023/09/05 09:51:19;;;;;;;9.23;2.60;;;;;;;;;;4943288;28;20031;-68
2023/09/05 09:53:48;;;;;;;9.43;2.75;;;;;;;;;;4942273;28;20373;-68
2023/09/05 09:56:18;;;;;;;7.47;2.42;;;;;;;;;;4943245;28;20137;-67
2023/09/05 09:58:46;;;;;;;12.73;2.88;;;;;;;;;;4949612;28;20037;-67
2023/09/05 10:01:12;;;;;;;11.07;2.58;;;;;;;;;;4943868;28;20337;-68
2023/09/05 10:03:40;;;;;;;8.85;2.40;;;;;;;;;;4949386;28;20034;-67
2023/09/05 10:06:07;;;;;;;8.95;2.50;;;;;;;;;;4943413;28;20568;-67
2023/09/05 10:08:34;;;;;;;8.23;2.20;;;;;;;;;;4947200;28;20090;-67
2023/09/05 10:11:00;;;;;;;10.15;2.30;;;;;;;;;;4944636;28;20073;-68
2023/09/05 10:13:30;;;;;;;7.55;2.40;;;;;;;;;;4943698;28;20533;-67
2023/09/05 10:15:56;;;;;;;6.63;2.05;;;;;;;;;;4946698;28;20536;-67
2023/09/05 10:18:23;;;;;;;9.38;2.70;;;;;;;;;;4946145;28;22222;-68
2023/09/05 10:20:50;;;;;;;10.27;2.95;;;;;;;;;;4946002;28;20488;-67
2023/09/05 10:23:18;;;;;;;10.52;2.42;;;;;;;;;;4943763;28;20074;-67
2023/09/05 10:25:45;;;;;;;10.43;2.13;;;;;;;;;;4948536;28;20038;-68
2023/09/05 10:28:11;;;;;;;8.73;2.28;;;;;;;;;;4958921;28;20031;-68
2023/09/05 10:30:41;;;;;;;7.97;2.40;;;;;;;;;;4943644;28;20041;-68
2023/09/05 10:33:11;;;;;;;11.38;2.35;;;;;;;;;;4945465;28;20035;-68
2023/09/05 10:35:37;;;;;;;7.18;2.30;;;;;;;;;;4946210;28;20300;-68
2023/09/05 10:38:06;;;;;;;9.07;2.20;;;;;;;;;;4947383;28;20033;-68
2023/09/05 10:40:34;;;;;;;8.38;2.22;;;;;;;;;;4942728;28;20047;-68
2023/09/05 10:43:01;;;;;;;8.57;2.45;;;;;;;;;;4945783;28;20311;-67
2023/09/05 10:45:27;;;;;;;8.32;2.17;;;;;;;;;;4945123;28;20042;-68
2023/09/05 10:47:57;;;;;;;8.45;2.20;;;;;;;;;;4952462;28;20026;-67
2023/09/05 10:50:23;;;;;;;7.22;2.00;;;;;;;;;;4943202;28;23538;-68
2023/09/05 10:53:10;;;;;;;8.15;2.10;;;;;;;;;;4950551;28;20484;-67
2023/09/05 10:55:43;;;;;;;9.07;2.40;;;;;;;;;;4932681;28;20069;-68
2023/09/05 10:58:29;;;;;;;7.15;2.17;;;;;;;;;;4944055;28;20543;-67
2023/09/05 11:01:00;;;;;;;9.73;2.30;;;;;;;;;;4949352;28;20039;-69
2023/09/05 11:03:38;;;;;;;10.50;2.28;;;;;;;;;;4944681;28;20107;-69
2023/09/05 11:06:16;;;;;;;8.35;2.38;;;;;;;;;;4944041;28;20059;-66
2023/09/05 11:08:43;;;;;;;7.50;1.85;;;;;;;;;;4947454;28;20101;-67
2023/09/05 11:11:09;;;;;;;7.95;2.30;;;;;;;;;;4942812;28;20030;-67
2023/09/05 11:13:35;;;;;;;6.57;1.98;;;;;;;;;;4947650;28;20038;-68
2023/09/05 11:16:01;;;;;;;8.52;2.30;;;;;;;;;;4945387;28;20138;-68
2023/09/05 11:18:28;;;;;;;9.77;2.38;;;;;;;;;;4944582;28;20034;-68
2023/09/05 11:20:54;;;;;;;7.35;2.30;;;;;;;;;;4946195;28;20046;-68
2023/09/05 11:23:22;;;;;;;8.68;1.95;;;;;;;;;;4936791;28;20141;-69
2023/09/05 11:25:56;;;;;;;8.43;2.20;;;;;;;;;;4941305;28;20335;-69
2023/09/05 11:28:22;;;;;;;8.68;2.20;;;;;;;;;;4940323;28;20066;-69
2023/09/05 11:30:52;;;;;;;8.38;2.38;;;;;;;;;;4942397;28;20353;-68
2023/09/05 11:33:19;;;;;;;5.72;1.80;;;;;;;;;;4935378;28;20034;-68
2023/09/05 11:35:46;;;;;;;7.15;2.13;;;;;;;;;;4942714;28;20393;-68
2023/09/05 11:38:13;;;;;;;7.63;2.03;;;;;;;;;;4937242;28;20320;-67
2023/09/05 11:40:41;;;;;;;7.72;2.33;;;;;;;;;;4937723;28;20039;-67
2023/09/05 11:43:11;;;;;;;8.20;2.08;;;;;;;;;;4939958;28;20033;-66
2023/09/05 11:45:37;;;;;;;8.48;2.17;;;;;;;;;;4937911;28;20019;-68
2023/09/05 11:48:05;;;;;;;6.88;2.13;;;;;;;;;;4937725;28;20112;-67
2023/09/05 11:50:31;;;;;;;7.45;1.85;;;;;;;;;;4938129;28;20496;-68
2023/09/05 11:52:59;;;;;;;7.88;1.85;;;;;;;;;;4942932;28;20034;-68
2023/09/05 11:55:25;;;;;;;8.35;1.90;;;;;;;;;;4938980;28;20054;-69
2023/09/05 11:57:55;;;;;;;8.15;2.28;;;;;;;;;;4941911;28;20448;-68
2023/09/05 12:00:23;;;;;;;6.72;1.95;;;;;;;;;;4936031;28;20031;-68
2023/09/05 12:02:50;;;;;;;8.25;2.00;;;;;;;;;;4939011;28;20035;-69
2023/09/05 12:05:19;;;;;;;5.95;1.67;;;;;;;;;;4936499;28;20050;-68
2023/09/05 12:07:55;;;;;;;6.45;1.52;;;;;;;;;;4938192;28;20668;-68
2023/09/05 12:10:27;;;;;;;6.55;1.92;;;;;;;;;;4939485;28;20031;-68
2023/09/05 12:12:58;;;;;;;6.93;1.88;;;;;;;;;;4941392;28;20046;-68
2023/09/05 12:15:28;;;;;;;6.38;1.70;;;;;;;;;;4942135;28;20488;-68
2023/09/05 12:17:55;;;;;;;9.35;1.80;;;;;;;;;;4943075;28;20023;-68
2023/09/05 12:20:21;;;;;;;7.82;1.85;;;;;;;;;;4934767;28;20093;-68
2023/09/05 12:22:48;;;;;;;7.30;1.63;;;;;;;;;;4937171;28;20067;-69
2023/09/05 12:25:15;;;;;;;6.63;1.77;;;;;;;;;;4943259;28;20129;-69
2023/09/05 12:27:44;;;;;;;8.65;2.10;;;;;;;;;;4943866;28;20654;-68
2023/09/05 12:30:30;;;;;;;6.60;1.83;;;;;;;;;;4938674;28;20070;-69
2023/09/05 12:32:58;;;;;;;7.20;2.20;;;;;;;;;;4944622;28;20097;-68
2023/09/05 12:35:25;;;;;;;7.53;1.70;;;;;;;;;;4939516;28;20122;-67
2023/09/05 12:37:53;;;;;;;6.38;1.80;;;;;;;;;;4943021;28;20368;-68
2023/09/05 12:40:21;;;;;;;7.93;2.17;;;;;;;;;;4942730;28;20540;-68
2023/09/05 12:42:47;;;;;;;6.00;1.50;;;;;;;;;;4940623;28;20035;-68
2023/09/05 12:45:14;;;;;;;6.00;1.50;;;;;;;;;;4940207;28;20031;-68
2023/09/05 12:47:40;;;;;;;6.47;1.70;;;;;;;;;;4941663;28;20161;-68
2023/09/05 12:50:16;;;;;;;7.60;1.77;;;;;;;;;;4939511;28;20034;-68
2023/09/05 12:52:44;;;;;;;7.00;1.92;;;;;;;;;;4939757;28;20461;-68
2023/09/05 12:55:12;;;;;;;5.68;1.70;;;;;;;;;;4940242;28;20521;-68
2023/09/05 12:57:39;;;;;;;6.60;2.05;;;;;;;;;;4942102;28;20273;-67
2023/09/05 13:00:07;;;;;;;5.20;1.58;;;;;;;;;;4939399;28;20473;-70
2023/09/05 13:02:33;;;;;;;8.15;1.70;;;;;;;;;;4940976;28;20346;-70
2023/09/05 13:04:59;;;;;;;6.28;1.75;;;;;;;;;;4943164;28;20123;-69
2023/09/05 13:07:25;;;;;;;6.43;1.80;;;;;;;;;;4938805;28;20141;-68
2023/09/05 13:09:53;;;;;;;6.82;1.60;;;;;;;;;;4943143;28;20034;-68
2023/09/05 13:12:19;;;;;;;5.78;1.80;;;;;;;;;;4938858;28;20070;-68
2023/09/05 13:14:46;;;;;;;6.72;1.65;;;;;;;;;;4942080;28;20034;-69
2023/09/05 13:17:12;;;;;;;7.10;1.65;;;;;;;;;;4941639;28;20791;-69
2023/09/05 13:19:40;;;;;;;4.53;1.50;;;;;;;;;;4945154;28;20022;-68
2023/09/05 13:22:07;;;;;;;5.47;1.50;;;;;;;;;;4938537;28;20783;-69
2023/09/05 13:24:33;;;;;;;5.88;1.80;;;;;;;;;;4942619;28;20258;-67
2023/09/05 13:27:00;;;;;;;6.97;1.80;;;;;;;;;;4943679;28;20481;-67
2023/09/05 13:29:26;;;;;;;11.10;1.92;;;;;;;;;;4938305;28;20263;-67
2023/09/05 13:31:52;;;;;;;6.38;1.90;;;;;;;;;;4940265;28;20248;-67
2023/09/05 13:34:19;;;;;;;5.75;1.60;;;;;;;;;;4940252;28;20508;-68
2023/09/05 13:36:45;;;;;;;4.75;1.42;;;;;;;;;;4939040;28;20117;-70
2023/09/05 13:39:11;;;;;;;5.88;1.40;;;;;;;;;;4938558;28;20050;-68
2023/09/05 13:41:37;;;;;;;4.82;1.20;;;;;;;;;;4941110;28;20042;-68
2023/09/05 13:44:03;;;;;;;7.95;1.70;;;;;;;;;;4936153;28;20035;-68
2023/09/05 13:46:34;;;;;;;7.97;1.60;;;;;;;;;;4944421;28;20085;-68
2023/09/05 13:49:01;;;;;;;5.75;1.70;;;;;;;;;;4940408;28;20041;-68
2023/09/05 13:51:29;;;;;;;4.78;1.42;;;;;;;;;;4936007;28;20332;-68
2023/09/05 13:53:55;;;;;;;9.02;1.80;;;;;;;;;;4943815;28;20503;-67
2023/09/05 13:56:26;;;;;;;6.43;1.60;;;;;;;;;;4940520;28;20027;-67
2023/09/05 13:58:52;;;;;;;6.05;1.52;;;;;;;;;;4944542;28;20202;-67
2023/09/05 14:01:18;;;;;;;7.18;1.48;;;;;;;;;;4939458;28;20393;-69
2023/09/05 14:03:45;;;;;;;5.80;1.80;;;;;;;;;;4939985;28;20097;-67
2023/09/05 14:06:12;;;;;;;4.88;1.65;;;;;;;;;;4933881;28;20630;-69
2023/09/05 14:08:39;;;;;;;5.78;1.52;;;;;;;;;;4942221;28;20536;-69
2023/09/05 14:11:05;;;;;;;6.60;1.65;;;;;;;;;;4938937;28;20043;-70
2023/09/05 14:13:31;;;;;;;4.40;1.40;;;;;;;;;;4940648;28;20031;-70
2023/09/05 14:15:59;;;;;;;5.15;1.58;;;;;;;;;;4938893;28;20042;-67
2023/09/05 14:18:25;;;;;;;5.30;1.60;;;;;;;;;;4939485;28;20018;-70
2023/09/05 14:20:51;;;;;;;6.60;1.80;;;;;;;;;;4938512;28;20062;-68
2023/09/05 14:23:17;;;;;;;8.45;2.30;;;;;;;;;;4937284;28;20442;-68
2023/09/05 14:25:44;;;;;;;6.93;1.95;;;;;;;;;;4944283;28;20076;-68
2023/09/05 14:28:10;;;;;;;6.30;1.90;;;;;;;;;;4942375;28;20039;-68
2023/09/05 14:30:36;;;;;;;5.90;1.75;;;;;;;;;;4944492;28;20085;-68
2023/09/05 14:33:05;;;;;;;5.95;1.65;;;;;;;;;;4943061;28;20031;-68
2023/09/05 14:35:31;;;;;;;6.72;1.70;;;;;;;;;;4942413;28;20098;-69